Time;durP1;ratioP1;P1;durP2;ratioP2;P2;SDS_P1;SDS_P2;PMS_P1;PMS_P2;Temp;Humidity;BMP_temperature;BMP_pressure;BME280_temperature;BME280_humidity;BME280_pressure;Samples;Min_cycle;Max_cycle;Signal;HPM_P1;HPM_P2
2021/12/03 00:03:29;;;;;;;;;;;;;;;3.97;100.00;93688.25;10371890;28;20371;-80
2021/12/03 00:08:30;;;;;;;;;;;;;;;4.34;100.00;93668.78;10376178;28;19913;-75
2021/12/03 00:13:31;;;;;;;;;;;;;;;5.03;100.00;93679.31;10361211;28;19918;-74
2021/12/03 00:18:32;;;;;;;;;;;;;;;5.08;100.00;93689.97;10399740;28;19917;-75
2021/12/03 00:23:33;;;;;;;;;;;;;;;5.52;100.00;93640.72;10400222;28;19933;-75
2021/12/03 00:28:33;;;;;;;;;;;;;;;7.87;100.00;93667.28;10399865;28;19986;-75
2021/12/03 00:33:35;;;;;;;;;;;;;;;8.00;100.00;93649.75;10401904;28;20015;-74
2021/12/03 00:38:40;;;;;;;;;;;;;;;7.87;100.00;93667.28;10383113;28;19927;-70
2021/12/03 00:43:45;;;;;;;;;;;;;;;8.07;100.00;93657.44;10371879;28;20336;-75
2021/12/03 00:48:47;;;;;;;;;;;;;;;8.30;100.00;93690.66;10374994;28;20379;-73
2021/12/03 00:53:47;;;;;;;;;;;;;;;8.44;100.00;93647.94;10358650;28;19918;-72
2021/12/03 00:58:48;;;;;;;;;;;;;;;8.46;100.00;93661.84;10359607;28;19918;-73
2021/12/03 01:03:48;;;;;;;;;;;;;;;8.22;100.00;93672.56;10358546;28;19922;-78
2021/12/03 01:08:49;;;;;;;;;;;;;;;8.09;100.00;93668.66;10358145;28;19987;-75
2021/12/03 01:13:49;;;;;;;;;;;;;;;8.08;100.00;93679.63;10399025;28;19913;-76
2021/12/03 01:18:49;;;;;;;;;;;;;;;7.71;100.00;93681.84;10407764;28;19917;-76
2021/12/03 01:23:50;;;;;;;;;;;;;;;7.76;100.00;93664.97;10406905;28;20381;-73
2021/12/03 01:28:50;;;;;;;;;;;;;;;7.83;100.00;93668.91;10406777;28;19939;-81
2021/12/03 01:33:51;;;;;;;;;;;;;;;7.92;100.00;93674.44;10405607;28;19913;-76
2021/12/03 01:38:51;;;;;;;;;;;;;;;7.68;100.00;93671.72;10378757;28;20307;-76
2021/12/03 01:43:52;;;;;;;;;;;;;;;8.06;100.00;93652.38;10395818;28;19970;-74
2021/12/03 01:48:53;;;;;;;;;;;;;;;8.67;100.00;93630.25;10406001;28;19913;-75
2021/12/03 01:53:54;;;;;;;;;;;;;;;9.17;100.00;93656.63;10376458;28;19924;-73
2021/12/03 01:58:54;;;;;;;;;;;;;;;9.69;100.00;93627.13;10405899;28;20419;-75
2021/12/03 02:03:56;;;;;;;;;;;;;;;9.99;96.31;93619.63;10406728;28;19996;-74
2021/12/03 02:08:57;;;;;;;;;;;;;;;10.06;93.86;93620.03;10407193;28;20330;-75
2021/12/03 02:13:57;;;;;;;;;;;;;;;10.16;92.48;93621.72;10406095;28;19913;-75
2021/12/03 02:18:58;;;;;;;;;;;;;;;10.34;90.12;93621.91;10381436;28;19917;-75
2021/12/03 02:23:58;;;;;;;;;;;;;;;10.12;92.14;93630.66;10380624;28;20528;-75
2021/12/03 02:28:59;;;;;;;;;;;;;;;10.14;93.45;93621.22;10514837;22;19935;-74
2021/12/03 02:33:59;;;;;;;;;;;;;;;10.14;92.05;93609.69;10428145;28;19913;-75
2021/12/03 02:38:59;;;;;;;;;;;;;;;10.15;93.45;93613.97;10407633;28;19924;-74
2021/12/03 02:44:00;;;;;;;;;;;;;;;10.00;93.30;93605.09;10426431;28;19982;-73
2021/12/03 02:49:00;;;;;;;;;;;;;;;9.94;95.33;93608.97;10403586;28;20403;-74
2021/12/03 02:54:01;;;;;;;;;;;;;;;9.65;96.84;93609.22;10407311;28;19963;-74
2021/12/03 02:59:01;;;;;;;;;;;;;;;9.59;96.55;93627.31;10417867;28;20374;-74
2021/12/03 03:04:02;;;;;;;;;;;;;;;9.34;97.91;93625.84;10402886;28;19936;-73
2021/12/03 03:09:07;;;;;;;;;;;;;;;9.11;99.55;93654.31;10403833;28;19936;-74
2021/12/03 03:14:08;;;;;;;;;;;;;;;8.51;100.00;93669.03;10404376;28;19913;-73
2021/12/03 03:19:10;;;;;;;;;;;;;;;8.19;100.00;93646.31;10402825;28;19928;-77
2021/12/03 03:24:10;;;;;;;;;;;;;;;7.83;100.00;93647.50;10402298;28;19990;-74
2021/12/03 03:29:12;;;;;;;;;;;;;;;7.87;100.00;93637.06;10402060;28;19979;-75
2021/12/03 03:34:12;;;;;;;;;;;;;;;7.83;100.00;93660.09;10403178;28;19914;-74
2021/12/03 03:39:13;;;;;;;;;;;;;;;7.87;100.00;93639.72;10415582;28;19921;-74
2021/12/03 03:44:15;;;;;;;;;;;;;;;7.78;100.00;93654.78;10403204;28;20047;-75
2021/12/03 03:49:16;;;;;;;;;;;;;;;7.55;100.00;93646.44;10402380;28;20338;-76
2021/12/03 03:54:17;;;;;;;;;;;;;;;7.42;100.00;93666.56;10416797;28;19921;-75
2021/12/03 03:59:18;;;;;;;;;;;;;;;7.40;100.00;93682.09;10400448;28;19924;-75
2021/12/03 04:04:20;;;;;;;;;;;;;;;7.49;100.00;93661.72;10402238;28;20460;-74
2021/12/03 04:09:20;;;;;;;;;;;;;;;7.58;100.00;93661.13;10402516;28;20035;-75
2021/12/03 04:14:21;;;;;;;;;;;;;;;7.48;100.00;93675.34;10402555;28;20371;-73
2021/12/03 04:19:21;;;;;;;;;;;;;;;7.28;100.00;93657.59;10407217;28;19917;-75
2021/12/03 04:24:21;;;;;;;;;;;;;;;7.26;100.00;93646.41;10401981;28;19913;-75
2021/12/03 04:29:21;;;;;;;;;;;;;;;7.38;100.00;93662.06;10401228;28;20282;-75
2021/12/03 04:34:22;;;;;;;;;;;;;;;7.29;100.00;93673.34;10414910;28;19917;-74
2021/12/03 04:39:22;;;;;;;;;;;;;;;7.29;100.00;93670.69;10417684;28;19924;-75
2021/12/03 04:44:22;;;;;;;;;;;;;;;7.42;100.00;93665.78;10418183;28;19953;-74
2021/12/03 04:49:23;;;;;;;;;;;;;;;7.32;100.00;93682.69;10401665;28;19913;-75
2021/12/03 04:54:23;;;;;;;;;;;;;;;7.29;100.00;93694.75;10427076;28;20003;-74
2021/12/03 04:59:24;;;;;;;;;;;;;;;7.32;100.00;93685.38;10417027;28;19917;-76
2021/12/03 05:04:24;;;;;;;;;;;;;;;7.28;100.00;93706.50;10402590;28;19913;-78
2021/12/03 05:09:25;;;;;;;;;;;;;;;7.22;100.00;93704.94;10414150;28;20310;-73
2021/12/03 05:14:25;;;;;;;;;;;;;;;7.27;100.00;93707.59;10440926;28;19916;-76
2021/12/03 05:19:25;;;;;;;;;;;;;;;7.27;100.00;93701.44;10416512;28;19923;-76
2021/12/03 05:24:26;;;;;;;;;;;;;;;7.30;100.00;93716.94;10400335;28;19913;-78
2021/12/03 05:29:26;;;;;;;;;;;;;;;7.29;100.00;93704.63;10422518;28;19929;-74
2021/12/03 05:34:27;;;;;;;;;;;;;;;7.49;100.00;93715.19;10432155;28;20023;-74
2021/12/03 05:39:27;;;;;;;;;;;;;;;7.44;100.00;93743.84;10439534;28;19974;-73
2021/12/03 05:44:30;;;;;;;;;;;;;;;7.57;100.00;93735.19;10442828;28;19967;-74
2021/12/03 05:49:31;;;;;;;;;;;;;;;7.74;100.00;93742.81;10439699;28;20345;-75
2021/12/03 05:54:31;;;;;;;;;;;;;;;7.90;100.00;93756.06;10437998;28;19912;-76
2021/12/03 05:59:33;;;;;;;;;;;;;;;7.98;100.00;93763.47;10431604;28;19917;-79
2021/12/03 06:04:33;;;;;;;;;;;;;;;7.92;100.00;93751.22;10414627;28;20104;-76
2021/12/03 06:09:33;;;;;;;;;;;;;;;7.87;100.00;93744.84;10406278;28;20091;-75
2021/12/03 06:14:34;;;;;;;;;;;;;;;7.65;100.00;93753.31;10406596;28;20346;-77
2021/12/03 06:19:34;;;;;;;;;;;;;;;8.17;100.00;93774.28;10406879;28;19928;-73
2021/12/03 06:24:35;;;;;;;;;;;;;;;8.17;100.00;93761.69;10422613;28;20326;-74
2021/12/03 06:29:35;;;;;;;;;;;;;;;8.02;100.00;93738.56;10406407;28;19925;-74
2021/12/03 06:34:36;;;;;;;;;;;;;;;7.87;100.00;93757.44;10405548;28;19921;-80
2021/12/03 06:39:37;;;;;;;;;;;;;;;8.17;100.00;93756.34;10406289;28;19917;-74
2021/12/03 06:44:37;;;;;;;;;;;;;;;8.32;100.00;93774.16;10405242;28;19913;-76
2021/12/03 06:49:37;;;;;;;;;;;;;;;8.42;100.00;93788.53;10405071;28;19948;-75
2021/12/03 06:54:38;;;;;;;;;;;;;;;8.53;100.00;93779.34;10404041;28;19913;-74
2021/12/03 06:59:39;;;;;;;;;;;;;;;8.44;100.00;93789.03;10405301;28;20417;-75
2021/12/03 07:04:40;;;;;;;;;;;;;;;8.57;100.00;93795.63;10404840;28;19923;-75
2021/12/03 07:09:41;;;;;;;;;;;;;;;8.60;100.00;93800.44;10405148;28;20373;-75
2021/12/03 07:14:42;;;;;;;;;;;;;;;8.70;100.00;93792.28;10404626;28;19913;-75
2021/12/03 07:19:42;;;;;;;;;;;;;;;8.98;100.00;93787.94;10403747;28;19921;-76
2021/12/03 07:24:42;;;;;;;;;;;;;;;9.15;100.00;93797.41;10404984;28;19917;-75
2021/12/03 07:29:47;;;;;;;;;;;;;;;9.21;100.00;93794.38;10404083;28;19931;-78
2021/12/03 07:34:47;;;;;;;;;;;;;;;9.45;100.00;93788.16;10405003;28;19917;-77
2021/12/03 07:39:48;;;;;;;;;;;;;;;9.83;100.00;93777.44;10402753;28;20385;-74
2021/12/03 07:44:48;;;;;;;;;;;;;;;10.42;99.91;93756.38;10402965;28;19994;-76
2021/12/03 07:49:50;;;;;;;;;;;;;;;10.88;93.84;93764.66;10402769;28;20544;-75
2021/12/03 07:54:51;;;;;;;;;;;;;;;11.42;90.40;93765.69;10402267;28;19920;-74
2021/12/03 07:59:51;;;;;;;;;;;;;;;11.99;86.67;93761.78;10402339;28;20284;-76
2021/12/03 08:04:52;;;;;;;;;;;;;;;12.36;85.19;93780.56;10402313;28;19928;-75
2021/12/03 08:09:52;;;;;;;;;;;;;;;12.63;82.87;93783.09;10439867;28;20015;-78
2021/12/03 08:14:52;;;;;;;;;;;;;;;12.86;80.03;93776.84;10443503;28;19963;-74
2021/12/03 08:19:53;;;;;;;;;;;;;;;12.48;81.88;93786.97;10442107;28;19992;-80
2021/12/03 08:24:54;;;;;;;;;;;;;;;12.48;86.03;93791.56;10441196;28;19919;-76
2021/12/03 08:29:54;;;;;;;;;;;;;;;12.41;86.77;93783.91;10443833;28;19931;-75
2021/12/03 08:34:54;;;;;;;;;;;;;;;12.64;86.18;93783.88;10442023;28;19923;-76
2021/12/03 08:39:56;;;;;;;;;;;;;;;13.06;78.29;93792.50;10441276;28;20470;-75
2021/12/03 08:44:58;;;;;;;;;;;;;;;13.53;72.52;93789.28;10442137;28;19912;-81
2021/12/03 08:50:01;;;;;;;;;;;;;;;14.05;71.22;93793.97;10443494;28;20398;-81
2021/12/03 08:55:01;;;;;;;;;;;;;;;14.47;66.18;93788.84;10441451;28;19916;-74
2021/12/03 09:00:11;;;;;;;;;;;;;;;14.04;63.58;93789.69;10441901;28;19932;-78
2021/12/03 09:05:12;;;;;;;;;;;;;;;13.77;66.00;93793.47;10441133;28;19913;-78
2021/12/03 09:10:13;;;;;;;;;;;;;;;13.57;68.29;93809.16;10441263;28;19913;-76
2021/12/03 09:15:17;;;;;;;;;;;;;;;13.60;69.31;93819.31;10441436;28;20353;-79
2021/12/03 09:25:38;;;;;;;;;;;;;;;13.32;69.68;93791.75;10442338;28;19921;-76
2021/12/03 09:30:41;;;;;;;;;;;;;;;13.28;66.67;93807.81;10441361;28;19924;-82
2021/12/03 09:35:46;;;;;;;;;;;;;;;13.16;69.57;93788.72;10447763;28;19913;-75
2021/12/03 09:40:46;;;;;;;;;;;;;;;13.22;72.15;93814.44;10449404;28;20469;-79
2021/12/03 09:46:03;;;;;;;;;;;;;;;13.35;76.24;93799.25;10448149;28;19919;-74
2021/12/03 09:51:03;;;;;;;;;;;;;;;13.26;66.77;93795.72;10448237;28;19913;-75
2021/12/03 09:56:04;;;;;;;;;;;;;;;13.23;64.92;93804.41;10448485;28;19913;-74
2021/12/03 10:01:13;;;;;;;;;;;;;;;13.36;65.74;93811.66;10447550;28;19994;-75
2021/12/03 10:33:53;;;;;;;;;;;;;;;13.36;60.32;93776.56;10406707;28;19913;-76
2021/12/03 10:48:40;;;;;;;;;;;;;;;15.49;51.83;93772.09;10405441;28;19913;-77
2021/12/03 10:53:50;;;;;;;;;;;;;;;15.14;52.82;93773.06;10404487;28;19924;-75
2021/12/03 11:52:57;;;;;;;;;;;;;;;14.05;55.78;93769.66;10403927;28;19960;-75
2021/12/03 14:42:52;;;;;;;;;;;;;;;12.98;57.42;93763.59;10449612;28;19916;-75
2021/12/03 14:47:55;;;;;;;;;;;;;;;12.99;58.81;93771.34;10444340;28;19920;-76
2021/12/03 14:58:31;;;;;;;;;;;;;;;13.03;58.96;93779.59;10448237;28;19916;-78
2021/12/03 16:49:13;;;;;;;;;;;;;;;8.46;100.00;93921.59;10443089;28;20394;-73
2021/12/03 16:53:48;;;;;;;;;;;;;;;8.11;100.00;93930.66;10442879;28;19988;-76
2021/12/03 16:58:48;;;;;;;;;;;;;;;8.05;100.00;93953.94;10441714;28;19917;-79
2021/12/03 17:03:55;;;;;;;;;;;;;;;8.43;100.00;93974.84;10442315;28;19913;-80
2021/12/03 17:25:12;;;;;;;;;;;;;;;8.13;100.00;94003.41;10405124;28;19917;-77
2021/12/03 17:51:10;;;;;;;;;;;;;;;6.91;100.00;94057.72;10442743;28;20047;-76
2021/12/03 18:43:48;;;;;;;;;;;;;;;4.31;100.00;94115.34;10426858;28;19917;-81
2021/12/03 18:59:12;;;;;;;;;;;;;;;3.80;100.00;94118.19;10445315;28;19916;-74
2021/12/03 19:14:23;;;;;;;;;;;;;;;3.40;100.00;94144.75;10443833;28;20374;-76
2021/12/03 19:19:23;;;;;;;;;;;;;;;3.38;100.00;94151.34;10447750;28;19928;-74
2021/12/03 19:24:24;;;;;;;;;;;;;;;3.10;100.00;94155.69;10448037;28;19913;-77
2021/12/03 19:29:24;;;;;;;;;;;;;;;3.29;100.00;94168.72;10448128;28;19925;-76
2021/12/03 19:34:25;;;;;;;;;;;;;;;3.32;100.00;94190.31;10447541;28;19912;-77
2021/12/03 19:39:26;;;;;;;;;;;;;;;3.05;100.00;94200.72;10447970;28;19917;-76
2021/12/03 19:44:37;;;;;;;;;;;;;;;3.16;100.00;94205.16;10447854;28;19920;-76
2021/12/03 19:54:38;;;;;;;;;;;;;;;2.72;100.00;94212.88;10440077;28;20345;-76
2021/12/03 19:59:38;;;;;;;;;;;;;;;2.52;100.00;94213.28;10443992;28;19921;-74
2021/12/03 20:04:39;;;;;;;;;;;;;;;2.62;100.00;94223.28;10446680;28;19913;-76
2021/12/03 20:09:58;;;;;;;;;;;;;;;2.49;100.00;94235.78;10449259;28;19913;-76
2021/12/03 20:15:01;;;;;;;;;;;;;;;2.53;100.00;94231.63;10445655;28;19916;-75
2021/12/03 20:20:03;;;;;;;;;;;;;;;2.60;100.00;94238.66;10430823;28;20349;-76
2021/12/03 20:30:34;;;;;;;;;;;;;;;2.62;100.00;94241.88;10417215;28;19929;-78
2021/12/03 20:40:37;;;;;;;;;;;;;;;2.67;100.00;94234.81;10448011;28;20312;-75
2021/12/03 21:12:29;;;;;;;;;;;;;;;3.18;100.00;94240.25;10444827;28;19917;-76
2021/12/03 21:22:43;;;;;;;;;;;;;;;3.54;100.00;94226.75;10452377;28;19916;-77
2021/12/03 21:27:47;;;;;;;;;;;;;;;3.48;100.00;94225.09;10452323;28;19928;-73
2021/12/03 21:43:09;;;;;;;;;;;;;;;3.59;100.00;94227.66;10413527;28;20292;-80
2021/12/03 21:48:10;;;;;;;;;;;;;;;3.66;100.00;94221.38;10410682;28;19921;-78
2021/12/03 21:53:10;;;;;;;;;;;;;;;3.68;100.00;94235.22;10394644;28;19917;-77
2021/12/03 21:58:11;;;;;;;;;;;;;;;3.72;100.00;94225.72;10411417;28;19917;-78
2021/12/03 22:03:11;;;;;;;;;;;;;;;3.48;100.00;94228.53;10410973;28;19913;-78
2021/12/03 22:08:12;;;;;;;;;;;;;;;3.59;100.00;94227.66;10416155;28;20294;-79
2021/12/03 22:13:12;;;;;;;;;;;;;;;3.49;100.00;94238.13;10410792;28;19917;-79
2021/12/03 22:18:12;;;;;;;;;;;;;;;3.61;100.00;94234.56;10393838;28;19921;-78
2021/12/03 22:23:12;;;;;;;;;;;;;;;3.54;100.00;94224.91;10410151;28;20442;-77
2021/12/03 22:28:13;;;;;;;;;;;;;;;3.48;100.00;94207.28;10409258;28;20390;-81
2021/12/03 22:33:14;;;;;;;;;;;;;;;3.35;100.00;94204.94;10442656;28;19927;-76
2021/12/03 22:38:15;;;;;;;;;;;;;;;3.20;100.00;94214.25;10443951;28;20382;-75
2021/12/03 22:43:15;;;;;;;;;;;;;;;3.35;100.00;94197.78;10445210;28;20284;-75
2021/12/03 22:53:27;;;;;;;;;;;;;;;3.39;100.00;94196.25;10454086;28;19913;-80
2021/12/03 22:58:27;;;;;;;;;;;;;;;3.25;100.00;94194.94;10449603;28;19917;-78
2021/12/03 23:03:28;;;;;;;;;;;;;;;3.12;100.00;94185.44;10445726;28;19921;-78
2021/12/03 23:08:30;;;;;;;;;;;;;;;3.14;100.00;94187.84;10448769;28;19924;-78
2021/12/03 23:13:32;;;;;;;;;;;;;;;3.05;100.00;94190.09;10446255;28;19916;-77
2021/12/03 23:18:32;;;;;;;;;;;;;;;3.11;100.00;94189.13;10448724;28;20492;-80
2021/12/03 23:23:50;;;;;;;;;;;;;;;3.11;100.00;94180.38;10450493;28;19920;-75
2021/12/03 23:28:52;;;;;;;;;;;;;;;3.11;100.00;94181.16;10447896;28;20390;-75
2021/12/03 23:33:52;;;;;;;;;;;;;;;2.71;100.00;94190.06;10448226;28;19926;-76
2021/12/03 23:38:53;;;;;;;;;;;;;;;2.43;100.00;94223.47;10449543;28;19917;-76
2021/12/03 23:43:53;;;;;;;;;;;;;;;2.28;100.00;94204.59;10450134;28;19978;-77
2021/12/03 23:48:54;;;;;;;;;;;;;;;2.56;100.00;94203.81;10448325;28;19912;-78
2021/12/03 23:53:55;;;;;;;;;;;;;;;2.77;100.00;94210.31;10447918;28;20008;-77
2021/12/03 23:58:56;;;;;;;;;;;;;;;2.50;100.00;94212.75;10448554;28;19917;-80
